sensor_id;sensor_type;location;lat;lon;timestamp;temperature;humidity
15819;DHT22;8010;53.986;12.106;2023-07-29T00:00:46;15.10;99.90
15819;DHT22;8010;53.986;12.106;2023-07-29T00:03:12;15.10;99.90
15819;DHT22;8010;53.986;12.106;2023-07-29T00:05:38;15.10;99.90
15819;DHT22;8010;53.986;12.106;2023-07-29T00:08:04;15.10;99.90
15819;DHT22;8010;53.986;12.106;2023-07-29T00:10:31;15.00;99.90
15819;DHT22;8010;53.986;12.106;2023-07-29T00:12:57;15.00;99.90
15819;DHT22;8010;53.986;12.106;2023-07-29T00:15:23;15.00;99.90
15819;DHT22;8010;53.986;12.106;2023-07-29T00:17:48;15.00;99.90
15819;DHT22;8010;53.986;12.106;2023-07-29T00:20:14;15.00;99.90
15819;DHT22;8010;53.986;12.106;2023-07-29T00:22:40;15.00;99.90
15819;DHT22;8010;53.986;12.106;2023-07-29T00:25:06;15.00;99.90
15819;DHT22;8010;53.986;12.106;2023-07-29T00:27:32;15.00;99.90
15819;DHT22;8010;53.986;12.106;2023-07-29T00:29:58;15.10;99.90
15819;DHT22;8010;53.986;12.106;2023-07-29T00:32:23;15.10;99.90
15819;DHT22;8010;53.986;12.106;2023-07-29T00:34:49;15.10;99.90
15819;DHT22;8010;53.986;12.106;2023-07-29T00:37:14;15.10;99.90
15819;DHT22;8010;53.986;12.106;2023-07-29T00:39:40;15.00;99.90
15819;DHT22;8010;53.986;12.106;2023-07-29T00:42:06;15.00;99.90
15819;DHT22;8010;53.986;12.106;2023-07-29T00:44:31;15.00;99.90
15819;DHT22;8010;53.986;12.106;2023-07-29T00:46:57;14.90;99.90
15819;DHT22;8010;53.986;12.106;2023-07-29T00:49:23;15.00;99.90
15819;DHT22;8010;53.986;12.106;2023-07-29T00:51:50;14.90;99.90
15819;DHT22;8010;53.986;12.106;2023-07-29T00:54:15;14.90;99.90
15819;DHT22;8010;53.986;12.106;2023-07-29T00:56:41;14.90;99.90
15819;DHT22;8010;53.986;12.106;2023-07-29T00:59:07;14.90;99.90
15819;DHT22;8010;53.986;12.106;2023-07-29T01:01:33;15.00;99.90
15819;DHT22;8010;53.986;12.106;2023-07-29T01:03:59;14.90;99.90
15819;DHT22;8010;53.986;12.106;2023-07-29T01:06:58;14.90;99.90
15819;DHT22;8010;53.986;12.106;2023-07-29T01:09:33;14.90;99.90
15819;DHT22;8010;53.986;12.106;2023-07-29T01:12:22;14.90;99.90
15819;DHT22;8010;53.986;12.106;2023-07-29T01:17:48;14.90;99.90
15819;DHT22;8010;53.986;12.106;2023-07-29T01:20:16;14.90;99.90
15819;DHT22;8010;53.986;12.106;2023-07-29T01:22:42;14.90;99.90
15819;DHT22;8010;53.986;12.106;2023-07-29T01:25:08;15.00;99.90
15819;DHT22;8010;53.986;12.106;2023-07-29T01:27:34;14.90;99.90
15819;DHT22;8010;53.986;12.106;2023-07-29T01:30:00;15.00;99.90
15819;DHT22;8010;53.986;12.106;2023-07-29T01:32:43;15.00;99.90
15819;DHT22;8010;53.986;12.106;2023-07-29T01:37:36;15.00;99.90
15819;DHT22;8010;53.986;12.106;2023-07-29T01:40:04;15.00;99.90
15819;DHT22;8010;53.986;12.106;2023-07-29T01:42:30;15.00;99.90
15819;DHT22;8010;53.986;12.106;2023-07-29T01:44:56;15.00;99.90
15819;DHT22;8010;53.986;12.106;2023-07-29T01:47:22;15.00;99.90
15819;DHT22;8010;53.986;12.106;2023-07-29T01:49:48;15.00;99.90
15819;DHT22;8010;53.986;12.106;2023-07-29T01:52:13;15.40;99.90
15819;DHT22;8010;53.986;12.106;2023-07-29T01:54:39;15.10;99.90
15819;DHT22;8010;53.986;12.106;2023-07-29T01:57:05;15.10;99.90
15819;DHT22;8010;53.986;12.106;2023-07-29T01:59:31;15.10;99.90
15819;DHT22;8010;53.986;12.106;2023-07-29T02:01:56;15.10;99.90
15819;DHT22;8010;53.986;12.106;2023-07-29T02:04:22;15.10;99.90
15819;DHT22;8010;53.986;12.106;2023-07-29T02:06:48;15.10;99.90
15819;DHT22;8010;53.986;12.106;2023-07-29T02:09:13;15.10;99.90
15819;DHT22;8010;53.986;12.106;2023-07-29T02:11:39;15.10;99.90
15819;DHT22;8010;53.986;12.106;2023-07-29T02:14:04;15.10;99.90
15819;DHT22;8010;53.986;12.106;2023-07-29T02:16:30;15.20;99.90
15819;DHT22;8010;53.986;12.106;2023-07-29T02:18:55;15.20;99.90
15819;DHT22;8010;53.986;12.106;2023-07-29T02:21:21;15.20;99.90
15819;DHT22;8010;53.986;12.106;2023-07-29T02:23:46;15.20;99.90
15819;DHT22;8010;53.986;12.106;2023-07-29T02:26:12;15.20;99.90
15819;DHT22;8010;53.986;12.106;2023-07-29T02:28:37;15.20;99.90
15819;DHT22;8010;53.986;12.106;2023-07-29T02:31:16;15.30;99.90
15819;DHT22;8010;53.986;12.106;2023-07-29T02:33:43;15.30;99.90
15819;DHT22;8010;53.986;12.106;2023-07-29T02:36:09;15.30;99.90
15819;DHT22;8010;53.986;12.106;2023-07-29T02:38:34;15.30;99.90
15819;DHT22;8010;53.986;12.106;2023-07-29T02:41:00;15.30;99.90
15819;DHT22;8010;53.986;12.106;2023-07-29T02:43:25;15.30;99.90
15819;DHT22;8010;53.986;12.106;2023-07-29T02:45:51;15.30;99.90
15819;DHT22;8010;53.986;12.106;2023-07-29T02:48:16;15.30;99.90
15819;DHT22;8010;53.986;12.106;2023-07-29T02:50:42;15.30;99.90
15819;DHT22;8010;53.986;12.106;2023-07-29T02:53:07;15.40;99.90
15819;DHT22;8010;53.986;12.106;2023-07-29T02:55:33;15.40;99.90
15819;DHT22;8010;53.986;12.106;2023-07-29T02:57:58;15.40;99.90
15819;DHT22;8010;53.986;12.106;2023-07-29T03:00:24;15.50;99.90
15819;DHT22;8010;53.986;12.106;2023-07-29T03:02:50;15.50;99.90
15819;DHT22;8010;53.986;12.106;2023-07-29T03:05:15;15.50;99.90
15819;DHT22;8010;53.986;12.106;2023-07-29T03:07:41;15.50;99.90
15819;DHT22;8010;53.986;12.106;2023-07-29T03:10:06;15.50;99.90
15819;DHT22;8010;53.986;12.106;2023-07-29T03:12:32;15.50;99.90
15819;DHT22;8010;53.986;12.106;2023-07-29T03:14:58;15.70;99.90
15819;DHT22;8010;53.986;12.106;2023-07-29T03:17:25;15.60;99.90
15819;DHT22;8010;53.986;12.106;2023-07-29T03:19:50;15.70;99.90
15819;DHT22;8010;53.986;12.106;2023-07-29T03:22:16;15.60;99.90
15819;DHT22;8010;53.986;12.106;2023-07-29T03:24:41;15.60;99.90
15819;DHT22;8010;53.986;12.106;2023-07-29T03:27:07;15.60;99.90
15819;DHT22;8010;53.986;12.106;2023-07-29T03:29:35;15.70;99.90
15819;DHT22;8010;53.986;12.106;2023-07-29T03:32:00;15.70;99.90
15819;DHT22;8010;53.986;12.106;2023-07-29T03:34:26;15.70;99.90
15819;DHT22;8010;53.986;12.106;2023-07-29T03:36:51;15.70;99.90
15819;DHT22;8010;53.986;12.106;2023-07-29T03:39:17;15.70;99.90
15819;DHT22;8010;53.986;12.106;2023-07-29T03:41:42;15.70;99.90
15819;DHT22;8010;53.986;12.106;2023-07-29T03:44:08;15.70;99.90
15819;DHT22;8010;53.986;12.106;2023-07-29T03:46:33;15.70;99.90
15819;DHT22;8010;53.986;12.106;2023-07-29T03:48:59;15.60;99.90
15819;DHT22;8010;53.986;12.106;2023-07-29T03:51:24;15.60;99.90
15819;DHT22;8010;53.986;12.106;2023-07-29T03:53:50;15.60;99.90
15819;DHT22;8010;53.986;12.106;2023-07-29T03:56:16;15.60;99.90
15819;DHT22;8010;53.986;12.106;2023-07-29T03:58:42;15.60;99.90
15819;DHT22;8010;53.986;12.106;2023-07-29T04:01:09;15.60;99.90
15819;DHT22;8010;53.986;12.106;2023-07-29T04:03:34;15.70;99.90
15819;DHT22;8010;53.986;12.106;2023-07-29T04:06:00;15.70;99.90
15819;DHT22;8010;53.986;12.106;2023-07-29T04:08:25;15.70;99.90
15819;DHT22;8010;53.986;12.106;2023-07-29T04:10:51;15.70;99.90
15819;DHT22;8010;53.986;12.106;2023-07-29T04:13:17;15.70;99.90
15819;DHT22;8010;53.986;12.106;2023-07-29T04:15:42;15.70;99.90
15819;DHT22;8010;53.986;12.106;2023-07-29T04:18:08;15.80;99.90
15819;DHT22;8010;53.986;12.106;2023-07-29T04:20:33;15.80;99.90
15819;DHT22;8010;53.986;12.106;2023-07-29T04:22:59;15.80;99.90
15819;DHT22;8010;53.986;12.106;2023-07-29T04:25:24;15.90;99.90
15819;DHT22;8010;53.986;12.106;2023-07-29T04:27:50;16.00;99.90
15819;DHT22;8010;53.986;12.106;2023-07-29T04:30:15;16.10;99.90
15819;DHT22;8010;53.986;12.106;2023-07-29T04:32:41;16.10;99.90
15819;DHT22;8010;53.986;12.106;2023-07-29T04:35:08;16.10;99.90
15819;DHT22;8010;53.986;12.106;2023-07-29T04:37:33;16.20;99.90
15819;DHT22;8010;53.986;12.106;2023-07-29T04:39:59;16.20;99.90
15819;DHT22;8010;53.986;12.106;2023-07-29T04:42:25;16.30;99.90
15819;DHT22;8010;53.986;12.106;2023-07-29T04:44:50;16.30;99.90
15819;DHT22;8010;53.986;12.106;2023-07-29T04:47:16;16.40;99.90
15819;DHT22;8010;53.986;12.106;2023-07-29T04:49:41;16.50;99.90
15819;DHT22;8010;53.986;12.106;2023-07-29T04:52:07;16.60;99.90
15819;DHT22;8010;53.986;12.106;2023-07-29T04:54:32;16.70;99.90
15819;DHT22;8010;53.986;12.106;2023-07-29T04:56:58;16.80;99.90
15819;DHT22;8010;53.986;12.106;2023-07-29T04:59:24;16.90;99.90
15819;DHT22;8010;53.986;12.106;2023-07-29T05:01:49;17.00;99.90
15819;DHT22;8010;53.986;12.106;2023-07-29T05:04:15;17.10;99.90
15819;DHT22;8010;53.986;12.106;2023-07-29T05:06:40;17.30;99.90
15819;DHT22;8010;53.986;12.106;2023-07-29T05:09:17;17.40;99.90
15819;DHT22;8010;53.986;12.106;2023-07-29T05:11:43;17.40;99.90
15819;DHT22;8010;53.986;12.106;2023-07-29T05:14:11;17.50;99.90
15819;DHT22;8010;53.986;12.106;2023-07-29T05:16:36;17.50;99.90
15819;DHT22;8010;53.986;12.106;2023-07-29T05:19:02;17.50;99.90
15819;DHT22;8010;53.986;12.106;2023-07-29T05:21:28;17.50;99.90
15819;DHT22;8010;53.986;12.106;2023-07-29T05:23:53;17.50;99.90
15819;DHT22;8010;53.986;12.106;2023-07-29T05:26:19;17.60;99.90
15819;DHT22;8010;53.986;12.106;2023-07-29T05:28:44;17.60;99.90
15819;DHT22;8010;53.986;12.106;2023-07-29T05:31:10;17.60;99.90
15819;DHT22;8010;53.986;12.106;2023-07-29T05:33:35;17.70;99.90
15819;DHT22;8010;53.986;12.106;2023-07-29T05:36:01;17.70;99.90
15819;DHT22;8010;53.986;12.106;2023-07-29T05:38:27;17.70;99.90
15819;DHT22;8010;53.986;12.106;2023-07-29T05:40:52;17.80;99.90
15819;DHT22;8010;53.986;12.106;2023-07-29T05:43:18;17.80;99.90
15819;DHT22;8010;53.986;12.106;2023-07-29T05:45:43;17.90;99.90
15819;DHT22;8010;53.986;12.106;2023-07-29T05:48:09;17.90;99.90
15819;DHT22;8010;53.986;12.106;2023-07-29T05:50:34;18.00;99.90
15819;DHT22;8010;53.986;12.106;2023-07-29T05:53:00;18.00;99.90
15819;DHT22;8010;53.986;12.106;2023-07-29T05:55:25;18.10;99.90
15819;DHT22;8010;53.986;12.106;2023-07-29T05:57:51;18.20;99.90
15819;DHT22;8010;53.986;12.106;2023-07-29T06:00:16;18.30;99.90
15819;DHT22;8010;53.986;12.106;2023-07-29T06:02:42;18.40;99.90
15819;DHT22;8010;53.986;12.106;2023-07-29T06:05:08;18.50;99.90
15819;DHT22;8010;53.986;12.106;2023-07-29T06:07:33;18.60;99.90
15819;DHT22;8010;53.986;12.106;2023-07-29T06:09:59;18.70;99.90
15819;DHT22;8010;53.986;12.106;2023-07-29T06:12:25;18.70;99.90
15819;DHT22;8010;53.986;12.106;2023-07-29T06:14:51;18.90;99.90
15819;DHT22;8010;53.986;12.106;2023-07-29T06:17:16;19.00;99.90
15819;DHT22;8010;53.986;12.106;2023-07-29T06:19:42;19.20;99.90
15819;DHT22;8010;53.986;12.106;2023-07-29T06:22:07;19.40;99.90
15819;DHT22;8010;53.986;12.106;2023-07-29T06:24:33;19.50;99.90
15819;DHT22;8010;53.986;12.106;2023-07-29T06:26:58;19.60;99.90
15819;DHT22;8010;53.986;12.106;2023-07-29T06:29:24;19.70;99.90
15819;DHT22;8010;53.986;12.106;2023-07-29T06:31:49;19.80;99.90
15819;DHT22;8010;53.986;12.106;2023-07-29T06:34:17;19.90;99.90
15819;DHT22;8010;53.986;12.106;2023-07-29T06:36:42;19.90;99.90
15819;DHT22;8010;53.986;12.106;2023-07-29T06:39:08;19.90;99.90
15819;DHT22;8010;53.986;12.106;2023-07-29T06:41:33;20.00;99.90
15819;DHT22;8010;53.986;12.106;2023-07-29T06:43:59;20.10;99.90
15819;DHT22;8010;53.986;12.106;2023-07-29T06:46:24;20.20;99.90
15819;DHT22;8010;53.986;12.106;2023-07-29T06:48:51;20.40;99.90
15819;DHT22;8010;53.986;12.106;2023-07-29T06:51:17;20.50;99.90
15819;DHT22;8010;53.986;12.106;2023-07-29T06:53:42;20.60;99.90
15819;DHT22;8010;53.986;12.106;2023-07-29T06:56:08;20.70;99.90
15819;DHT22;8010;53.986;12.106;2023-07-29T06:58:34;20.80;99.90
15819;DHT22;8010;53.986;12.106;2023-07-29T07:00:59;20.90;99.90
15819;DHT22;8010;53.986;12.106;2023-07-29T07:03:25;21.10;99.90
15819;DHT22;8010;53.986;12.106;2023-07-29T07:05:51;21.20;99.90
15819;DHT22;8010;53.986;12.106;2023-07-29T07:08:16;21.20;99.90
15819;DHT22;8010;53.986;12.106;2023-07-29T07:10:42;21.30;99.90
15819;DHT22;8010;53.986;12.106;2023-07-29T07:13:07;21.50;99.90
15819;DHT22;8010;53.986;12.106;2023-07-29T07:15:33;21.50;99.90
15819;DHT22;8010;53.986;12.106;2023-07-29T07:17:58;21.50;99.90
15819;DHT22;8010;53.986;12.106;2023-07-29T07:20:24;21.50;99.90
15819;DHT22;8010;53.986;12.106;2023-07-29T07:22:49;21.50;99.90
15819;DHT22;8010;53.986;12.106;2023-07-29T07:25:15;21.50;99.90
15819;DHT22;8010;53.986;12.106;2023-07-29T07:27:40;21.50;99.90
15819;DHT22;8010;53.986;12.106;2023-07-29T07:30:06;21.50;99.90
15819;DHT22;8010;53.986;12.106;2023-07-29T07:32:32;21.60;99.90
15819;DHT22;8010;53.986;12.106;2023-07-29T07:34:57;21.70;99.90
15819;DHT22;8010;53.986;12.106;2023-07-29T07:37:23;21.70;99.90
15819;DHT22;8010;53.986;12.106;2023-07-29T07:39:48;21.80;99.90
15819;DHT22;8010;53.986;12.106;2023-07-29T07:42:14;21.80;99.90
15819;DHT22;8010;53.986;12.106;2023-07-29T07:44:39;21.80;99.90
15819;DHT22;8010;53.986;12.106;2023-07-29T07:47:05;21.80;99.90
15819;DHT22;8010;53.986;12.106;2023-07-29T07:49:31;21.80;99.90
15819;DHT22;8010;53.986;12.106;2023-07-29T07:51:56;21.80;99.90
15819;DHT22;8010;53.986;12.106;2023-07-29T07:54:22;21.90;99.90
15819;DHT22;8010;53.986;12.106;2023-07-29T07:56:47;21.90;99.90
15819;DHT22;8010;53.986;12.106;2023-07-29T07:59:13;21.80;99.90
15819;DHT22;8010;53.986;12.106;2023-07-29T08:01:39;21.70;99.90
15819;DHT22;8010;53.986;12.106;2023-07-29T08:04:05;21.50;99.90
15819;DHT22;8010;53.986;12.106;2023-07-29T08:06:31;21.50;99.90
15819;DHT22;8010;53.986;12.106;2023-07-29T08:08:57;21.50;99.90
15819;DHT22;8010;53.986;12.106;2023-07-29T08:11:23;21.50;99.90
15819;DHT22;8010;53.986;12.106;2023-07-29T08:13:48;21.70;99.90
15819;DHT22;8010;53.986;12.106;2023-07-29T08:16:14;21.70;99.90
15819;DHT22;8010;53.986;12.106;2023-07-29T08:18:39;21.70;99.90
15819;DHT22;8010;53.986;12.106;2023-07-29T08:21:05;21.80;99.90
15819;DHT22;8010;53.986;12.106;2023-07-29T08:23:32;21.80;99.90
15819;DHT22;8010;53.986;12.106;2023-07-29T08:26:00;21.70;99.90
15819;DHT22;8010;53.986;12.106;2023-07-29T08:28:35;21.70;99.90
15819;DHT22;8010;53.986;12.106;2023-07-29T08:31:01;21.70;99.90
15819;DHT22;8010;53.986;12.106;2023-07-29T08:33:27;21.70;99.90
15819;DHT22;8010;53.986;12.106;2023-07-29T08:35:53;21.70;99.90
15819;DHT22;8010;53.986;12.106;2023-07-29T08:38:19;21.80;99.90
15819;DHT22;8010;53.986;12.106;2023-07-29T08:40:57;21.90;99.90
15819;DHT22;8010;53.986;12.106;2023-07-29T08:43:31;21.90;99.90
15819;DHT22;8010;53.986;12.106;2023-07-29T08:45:58;21.90;99.90
15819;DHT22;8010;53.986;12.106;2023-07-29T08:48:45;21.80;99.90
15819;DHT22;8010;53.986;12.106;2023-07-29T08:51:11;21.90;99.90
15819;DHT22;8010;53.986;12.106;2023-07-29T08:53:38;21.90;99.90
15819;DHT22;8010;53.986;12.106;2023-07-29T08:56:05;22.00;99.90
15819;DHT22;8010;53.986;12.106;2023-07-29T08:58:31;22.20;99.90
15819;DHT22;8010;53.986;12.106;2023-07-29T09:00:57;22.40;99.90
15819;DHT22;8010;53.986;12.106;2023-07-29T09:03:22;22.60;99.90
15819;DHT22;8010;53.986;12.106;2023-07-29T09:05:48;22.80;99.90
15819;DHT22;8010;53.986;12.106;2023-07-29T09:08:14;22.90;99.90
15819;DHT22;8010;53.986;12.106;2023-07-29T09:10:40;22.90;99.90
15819;DHT22;8010;53.986;12.106;2023-07-29T09:13:06;22.70;99.90
15819;DHT22;8010;53.986;12.106;2023-07-29T09:15:34;22.60;99.90
15819;DHT22;8010;53.986;12.106;2023-07-29T09:18:10;22.60;99.90
15819;DHT22;8010;53.986;12.106;2023-07-29T09:20:36;22.60;99.90
15819;DHT22;8010;53.986;12.106;2023-07-29T09:23:01;23.00;99.90
15819;DHT22;8010;53.986;12.106;2023-07-29T09:25:28;22.40;99.90
15819;DHT22;8010;53.986;12.106;2023-07-29T09:28:08;22.40;99.90
15819;DHT22;8010;53.986;12.106;2023-07-29T09:30:34;22.60;99.90
15819;DHT22;8010;53.986;12.106;2023-07-29T09:32:59;22.90;99.90
15819;DHT22;8010;53.986;12.106;2023-07-29T09:35:30;23.00;99.90
15819;DHT22;8010;53.986;12.106;2023-07-29T09:37:57;23.00;99.90
15819;DHT22;8010;53.986;12.106;2023-07-29T09:40:23;23.10;99.90
15819;DHT22;8010;53.986;12.106;2023-07-29T09:42:53;22.90;99.90
15819;DHT22;8010;53.986;12.106;2023-07-29T09:45:23;22.90;99.90
15819;DHT22;8010;53.986;12.106;2023-07-29T09:47:50;23.10;99.90
15819;DHT22;8010;53.986;12.106;2023-07-29T09:50:16;23.10;99.90
15819;DHT22;8010;53.986;12.106;2023-07-29T09:52:42;23.10;99.90
15819;DHT22;8010;53.986;12.106;2023-07-29T09:55:12;23.20;99.90
15819;DHT22;8010;53.986;12.106;2023-07-29T09:57:37;23.20;99.90
15819;DHT22;8010;53.986;12.106;2023-07-29T10:00:04;23.20;99.90
15819;DHT22;8010;53.986;12.106;2023-07-29T10:02:40;23.20;99.90
15819;DHT22;8010;53.986;12.106;2023-07-29T10:05:07;23.20;99.90
15819;DHT22;8010;53.986;12.106;2023-07-29T10:07:36;23.10;99.90
15819;DHT22;8010;53.986;12.106;2023-07-29T10:10:03;23.10;99.90
15819;DHT22;8010;53.986;12.106;2023-07-29T10:12:30;23.00;99.90
15819;DHT22;8010;53.986;12.106;2023-07-29T10:15:08;23.00;99.90
15819;DHT22;8010;53.986;12.106;2023-07-29T10:17:35;23.20;99.90
15819;DHT22;8010;53.986;12.106;2023-07-29T10:20:03;23.40;99.90
15819;DHT22;8010;53.986;12.106;2023-07-29T10:22:35;23.40;99.90
15819;DHT22;8010;53.986;12.106;2023-07-29T10:25:07;23.50;99.90
15819;DHT22;8010;53.986;12.106;2023-07-29T10:27:48;23.60;99.90
15819;DHT22;8010;53.986;12.106;2023-07-29T10:30:14;23.70;99.90
15819;DHT22;8010;53.986;12.106;2023-07-29T10:32:42;23.70;99.90
15819;DHT22;8010;53.986;12.106;2023-07-29T10:35:17;23.70;99.90
15819;DHT22;8010;53.986;12.106;2023-07-29T10:37:43;23.70;99.90
15819;DHT22;8010;53.986;12.106;2023-07-29T10:40:10;23.70;99.90
15819;DHT22;8010;53.986;12.106;2023-07-29T10:42:37;23.70;99.90
15819;DHT22;8010;53.986;12.106;2023-07-29T10:45:39;23.70;99.90
15819;DHT22;8010;53.986;12.106;2023-07-29T10:48:11;23.70;99.90
15819;DHT22;8010;53.986;12.106;2023-07-29T10:50:36;23.70;99.90
15819;DHT22;8010;53.986;12.106;2023-07-29T10:53:02;23.70;99.90
15819;DHT22;8010;53.986;12.106;2023-07-29T10:55:35;23.80;99.90
15819;DHT22;8010;53.986;12.106;2023-07-29T11:00:34;24.10;99.90
15819;DHT22;8010;53.986;12.106;2023-07-29T11:03:03;24.10;99.90
15819;DHT22;8010;53.986;12.106;2023-07-29T11:05:51;24.30;99.90
15819;DHT22;8010;53.986;12.106;2023-07-29T11:10:58;24.40;99.90
15819;DHT22;8010;53.986;12.106;2023-07-29T11:13:26;24.30;99.90
15819;DHT22;8010;53.986;12.106;2023-07-29T11:15:54;24.30;99.90
15819;DHT22;8010;53.986;12.106;2023-07-29T11:18:20;24.30;99.90
15819;DHT22;8010;53.986;12.106;2023-07-29T11:20:46;24.40;99.90
15819;DHT22;8010;53.986;12.106;2023-07-29T11:23:13;24.40;99.90
15819;DHT22;8010;53.986;12.106;2023-07-29T11:25:39;24.40;99.90
15819;DHT22;8010;53.986;12.106;2023-07-29T11:28:04;24.30;99.90
15819;DHT22;8010;53.986;12.106;2023-07-29T11:30:30;24.40;99.90
15819;DHT22;8010;53.986;12.106;2023-07-29T11:32:57;24.70;99.90
15819;DHT22;8010;53.986;12.106;2023-07-29T11:35:23;25.00;99.90
15819;DHT22;8010;53.986;12.106;2023-07-29T11:37:50;25.30;99.90
15819;DHT22;8010;53.986;12.106;2023-07-29T11:40:17;25.60;99.90
15819;DHT22;8010;53.986;12.106;2023-07-29T11:42:43;25.70;99.90
15819;DHT22;8010;53.986;12.106;2023-07-29T11:45:10;26.90;99.90
15819;DHT22;8010;53.986;12.106;2023-07-29T11:47:36;25.80;99.90
15819;DHT22;8010;53.986;12.106;2023-07-29T11:50:07;26.00;99.90
15819;DHT22;8010;53.986;12.106;2023-07-29T11:52:37;26.00;99.90
15819;DHT22;8010;53.986;12.106;2023-07-29T11:55:05;25.60;99.90
15819;DHT22;8010;53.986;12.106;2023-07-29T11:57:33;25.30;99.90
15819;DHT22;8010;53.986;12.106;2023-07-29T12:00:04;25.10;99.90
15819;DHT22;8010;53.986;12.106;2023-07-29T12:02:32;24.90;99.90
15819;DHT22;8010;53.986;12.106;2023-07-29T12:04:58;24.90;99.90
15819;DHT22;8010;53.986;12.106;2023-07-29T12:07:24;24.80;99.90
15819;DHT22;8010;53.986;12.106;2023-07-29T12:09:50;24.60;99.90
15819;DHT22;8010;53.986;12.106;2023-07-29T12:12:16;24.30;99.90
15819;DHT22;8010;53.986;12.106;2023-07-29T12:14:45;24.00;99.90
15819;DHT22;8010;53.986;12.106;2023-07-29T12:17:14;23.50;99.90
15819;DHT22;8010;53.986;12.106;2023-07-29T12:19:41;22.90;99.90
15819;DHT22;8010;53.986;12.106;2023-07-29T12:22:09;22.50;99.90
15819;DHT22;8010;53.986;12.106;2023-07-29T12:24:37;21.80;99.90
15819;DHT22;8010;53.986;12.106;2023-07-29T12:27:03;21.40;99.90
15819;DHT22;8010;53.986;12.106;2023-07-29T12:29:28;21.10;99.90
15819;DHT22;8010;53.986;12.106;2023-07-29T12:32:03;20.80;99.90
15819;DHT22;8010;53.986;12.106;2023-07-29T12:34:31;20.60;99.90
15819;DHT22;8010;53.986;12.106;2023-07-29T12:36:58;20.50;99.90
15819;DHT22;8010;53.986;12.106;2023-07-29T12:39:29;20.50;99.90
15819;DHT22;8010;53.986;12.106;2023-07-29T12:41:57;20.40;99.90
15819;DHT22;8010;53.986;12.106;2023-07-29T12:44:24;20.40;99.90
15819;DHT22;8010;53.986;12.106;2023-07-29T12:46:50;20.40;99.90
15819;DHT22;8010;53.986;12.106;2023-07-29T12:49:16;20.30;99.90
15819;DHT22;8010;53.986;12.106;2023-07-29T12:51:42;20.30;99.90
15819;DHT22;8010;53.986;12.106;2023-07-29T12:54:08;20.30;99.90
15819;DHT22;8010;53.986;12.106;2023-07-29T12:56:34;20.40;99.90
15819;DHT22;8010;53.986;12.106;2023-07-29T12:59:00;20.60;99.90
15819;DHT22;8010;53.986;12.106;2023-07-29T13:01:27;20.90;99.90
15819;DHT22;8010;53.986;12.106;2023-07-29T13:03:54;21.10;99.90
15819;DHT22;8010;53.986;12.106;2023-07-29T13:06:20;21.40;99.90
15819;DHT22;8010;53.986;12.106;2023-07-29T13:08:45;21.60;99.90
15819;DHT22;8010;53.986;12.106;2023-07-29T13:11:11;21.80;99.90
15819;DHT22;8010;53.986;12.106;2023-07-29T13:13:37;22.10;99.90
15819;DHT22;8010;53.986;12.106;2023-07-29T13:16:02;22.20;99.90
15819;DHT22;8010;53.986;12.106;2023-07-29T13:18:28;22.30;99.90
15819;DHT22;8010;53.986;12.106;2023-07-29T13:20:54;22.30;99.90
15819;DHT22;8010;53.986;12.106;2023-07-29T13:23:20;22.30;99.90
15819;DHT22;8010;53.986;12.106;2023-07-29T13:25:46;22.40;99.90
15819;DHT22;8010;53.986;12.106;2023-07-29T13:28:12;22.50;99.90
15819;DHT22;8010;53.986;12.106;2023-07-29T13:30:41;22.70;99.90
15819;DHT22;8010;53.986;12.106;2023-07-29T13:33:07;22.70;99.90
15819;DHT22;8010;53.986;12.106;2023-07-29T13:35:33;22.80;99.90
15819;DHT22;8010;53.986;12.106;2023-07-29T13:37:59;22.70;99.90
15819;DHT22;8010;53.986;12.106;2023-07-29T13:40:24;22.60;99.90
15819;DHT22;8010;53.986;12.106;2023-07-29T13:42:50;22.90;99.90
15819;DHT22;8010;53.986;12.106;2023-07-29T13:45:15;22.50;99.90
15819;DHT22;8010;53.986;12.106;2023-07-29T13:47:41;22.40;99.90
15819;DHT22;8010;53.986;12.106;2023-07-29T13:50:07;22.20;99.90
15819;DHT22;8010;53.986;12.106;2023-07-29T13:52:36;22.20;99.90
15819;DHT22;8010;53.986;12.106;2023-07-29T13:55:03;22.20;99.90
15819;DHT22;8010;53.986;12.106;2023-07-29T13:57:28;22.20;99.90
15819;DHT22;8010;53.986;12.106;2023-07-29T13:59:54;22.10;99.90
15819;DHT22;8010;53.986;12.106;2023-07-29T14:02:19;22.20;99.90
15819;DHT22;8010;53.986;12.106;2023-07-29T14:04:45;22.20;99.90
15819;DHT22;8010;53.986;12.106;2023-07-29T14:07:10;22.20;99.90
15819;DHT22;8010;53.986;12.106;2023-07-29T14:09:36;22.30;99.90
15819;DHT22;8010;53.986;12.106;2023-07-29T14:12:03;22.30;99.90
15819;DHT22;8010;53.986;12.106;2023-07-29T14:14:29;22.30;99.90
15819;DHT22;8010;53.986;12.106;2023-07-29T14:16:55;22.40;99.90
15819;DHT22;8010;53.986;12.106;2023-07-29T14:19:20;22.50;99.90
15819;DHT22;8010;53.986;12.106;2023-07-29T14:21:46;22.50;99.90
15819;DHT22;8010;53.986;12.106;2023-07-29T14:24:11;22.40;99.90
15819;DHT22;8010;53.986;12.106;2023-07-29T14:26:37;22.40;99.90
15819;DHT22;8010;53.986;12.106;2023-07-29T14:29:02;22.50;99.90
15819;DHT22;8010;53.986;12.106;2023-07-29T14:31:28;22.70;99.90
15819;DHT22;8010;53.986;12.106;2023-07-29T14:33:53;23.10;99.90
15819;DHT22;8010;53.986;12.106;2023-07-29T14:36:19;23.50;99.90
15819;DHT22;8010;53.986;12.106;2023-07-29T14:38:44;23.70;99.90
15819;DHT22;8010;53.986;12.106;2023-07-29T14:41:10;24.00;99.90
15819;DHT22;8010;53.986;12.106;2023-07-29T14:43:35;24.20;99.90
15819;DHT22;8010;53.986;12.106;2023-07-29T14:46:02;24.70;99.90
15819;DHT22;8010;53.986;12.106;2023-07-29T14:48:27;25.10;99.90
15819;DHT22;8010;53.986;12.106;2023-07-29T14:50:53;25.40;99.90
15819;DHT22;8010;53.986;12.106;2023-07-29T14:53:19;25.20;99.90
15819;DHT22;8010;53.986;12.106;2023-07-29T14:55:44;24.60;99.90
15819;DHT22;8010;53.986;12.106;2023-07-29T14:58:10;24.60;99.90
15819;DHT22;8010;53.986;12.106;2023-07-29T15:00:35;24.80;99.90
15819;DHT22;8010;53.986;12.106;2023-07-29T15:03:01;24.90;99.90
15819;DHT22;8010;53.986;12.106;2023-07-29T15:05:26;24.50;99.90
15819;DHT22;8010;53.986;12.106;2023-07-29T15:07:52;24.20;99.90
15819;DHT22;8010;53.986;12.106;2023-07-29T15:10:18;24.10;99.90
15819;DHT22;8010;53.986;12.106;2023-07-29T15:12:44;24.20;99.90
15819;DHT22;8010;53.986;12.106;2023-07-29T15:15:11;24.00;99.90
15819;DHT22;8010;53.986;12.106;2023-07-29T15:17:36;23.80;99.90
15819;DHT22;8010;53.986;12.106;2023-07-29T15:20:02;23.60;99.90
15819;DHT22;8010;53.986;12.106;2023-07-29T15:22:29;23.40;99.90
15819;DHT22;8010;53.986;12.106;2023-07-29T15:24:55;23.20;99.90
15819;DHT22;8010;53.986;12.106;2023-07-29T15:27:20;23.00;99.90
15819;DHT22;8010;53.986;12.106;2023-07-29T15:29:46;22.90;99.90
15819;DHT22;8010;53.986;12.106;2023-07-29T15:32:11;22.80;99.90
15819;DHT22;8010;53.986;12.106;2023-07-29T15:34:37;22.80;99.90
15819;DHT22;8010;53.986;12.106;2023-07-29T15:37:02;22.70;99.90